Time;durP1;ratioP1;P1;durP2;ratioP2;P2;SDS_P1;SDS_P2;PMS_P1;PMS_P2;Temp;Humidity;BMP_temperature;BMP_pressure;BME280_temperature;BME280_humidity;BME280_pressure;Samples;Min_cycle;Max_cycle;Signal;HPM_P1;HPM_P2
2022/09/23 00:01:52;;;;;;;0.10;0.10;;;;;;;6.56;100.00;96858.66;5016294;28;20041;-75
2022/09/23 00:04:18;;;;;;;0.00;0.00;;;;;;;6.56;100.00;96869.28;5002095;28;20459;-75
2022/09/23 00:06:44;;;;;;;0.10;0.10;;;;;;;6.54;100.00;96858.06;5021584;28;20037;-75
2022/09/23 00:09:10;;;;;;;0.10;0.10;;;;;;;6.53;100.00;96861.72;5021207;28;20026;-75
2022/09/23 00:11:36;;;;;;;0.10;0.10;;;;;;;6.51;100.00;96859.28;5000437;28;20045;-75
2022/09/23 00:14:02;;;;;;;0.20;0.10;;;;;;;6.55;100.00;96852.53;5019905;28;20025;-75
2022/09/23 00:16:32;;;;;;;0.10;0.10;;;;;;;6.55;100.00;96862.34;5018704;28;20044;-75
2022/09/23 00:18:59;;;;;;;0.10;0.10;;;;;;;6.56;100.00;96858.66;5021840;28;20045;-75
2022/09/23 00:21:28;;;;;;;0.05;0.05;;;;;;;6.57;100.00;96854.97;5019734;28;20040;-75
2022/09/23 00:23:53;;;;;;;0.20;0.10;;;;;;;6.51;100.00;96848.66;5027978;28;20255;-75
2022/09/23 00:26:20;;;;;;;0.10;0.10;;;;;;;6.49;100.00;96848.06;5008653;28;20715;-75
2022/09/23 00:28:46;;;;;;;0.00;0.00;;;;;;;6.52;100.00;96854.78;5010010;28;20029;-74
2022/09/23 00:31:24;;;;;;;0.10;0.10;;;;;;;6.58;100.00;96849.44;5019110;28;20099;-75
2022/09/23 00:34:00;;;;;;;0.10;0.10;;;;;;;6.65;100.00;96846.72;5018961;28;20040;-75
2022/09/23 00:36:27;;;;;;;0.00;0.00;;;;;;;6.61;100.00;96841.00;5014834;28;20241;-75
2022/09/23 00:38:54;;;;;;;0.10;0.10;;;;;;;6.59;100.00;96842.25;5016450;28;20021;-75
2022/09/23 00:41:20;;;;;;;0.10;0.10;;;;;;;6.56;100.00;96832.88;4999884;28;20070;-76
2022/09/23 00:43:49;;;;;;;0.00;0.00;;;;;;;6.60;100.00;96841.22;5016496;28;20029;-75
2022/09/23 00:46:19;;;;;;;0.10;0.10;;;;;;;6.54;100.00;96834.94;5018273;28;20048;-76
2022/09/23 00:48:46;;;;;;;0.10;0.10;;;;;;;6.56;100.00;96835.53;5018132;28;20063;-75
2022/09/23 00:51:16;;;;;;;0.10;0.10;;;;;;;6.55;100.00;96838.41;5015968;28;20044;-76
2022/09/23 00:53:44;;;;;;;0.10;0.10;;;;;;;6.53;100.00;96832.47;5003539;28;20318;-76
2022/09/23 00:56:12;;;;;;;0.10;0.10;;;;;;;6.48;100.00;96833.13;5017053;28;20281;-75
2022/09/23 00:58:41;;;;;;;0.10;0.10;;;;;;;6.48;100.00;96829.66;5019605;28;20017;-75
2022/09/23 01:01:07;;;;;;;0.00;0.00;;;;;;;6.48;100.00;96829.66;4999691;28;20036;-76
2022/09/23 01:03:33;;;;;;;0.10;0.10;;;;;;;6.46;100.00;96829.03;5016943;28;20612;-75
2022/09/23 01:05:58;;;;;;;0.00;0.00;;;;;;;6.46;100.00;96827.22;5018479;28;20426;-75
2022/09/23 01:08:25;;;;;;;0.10;0.10;;;;;;;6.53;100.00;96811.22;5018589;28;20376;-75
2022/09/23 01:10:58;;;;;;;0.10;0.10;;;;;;;6.59;100.00;96811.16;5017572;28;20048;-75
2022/09/23 01:13:40;;;;;;;0.03;0.03;;;;;;;6.70;100.00;96810.50;4997639;28;20229;-75
2022/09/23 01:16:39;;;;;;;0.10;0.10;;;;;;;6.77;100.00;96810.47;5016506;28;20224;-75
2022/09/23 01:19:17;;;;;;;0.00;0.00;;;;;;;6.78;100.00;96801.44;4996977;28;20087;-76
2022/09/23 01:22:07;;;;;;;0.10;0.10;;;;;;;6.80;100.00;96804.69;4977205;28;20471;-75
2022/09/23 01:25:10;;;;;;;0.10;0.10;;;;;;;6.75;100.00;96801.84;5017876;28;20037;-75
2022/09/23 01:27:41;;;;;;;0.10;0.10;;;;;;;6.70;100.00;96799.03;5017007;28;20479;-76
2022/09/23 01:30:44;;;;;;;0.10;0.10;;;;;;;6.65;100.00;96804.19;5018854;28;20036;-76
2022/09/23 01:33:23;;;;;;;0.00;0.00;;;;;;;6.58;100.00;96800.75;5015406;28;20114;-76
2022/09/23 01:36:08;;;;;;;0.05;0.05;;;;;;;6.55;100.00;96796.69;5016779;28;20153;-76
2022/09/23 01:38:51;;;;;;;0.00;0.00;;;;;;;6.55;100.00;96802.00;5018331;28;20257;-76
2022/09/23 01:41:46;;;;;;;0.10;0.10;;;;;;;6.59;100.00;96794.41;5014602;28;20081;-76
2022/09/23 01:44:28;;;;;;;0.00;0.00;;;;;;;6.61;100.00;96790.50;5002610;28;20029;-76
2022/09/23 01:46:55;;;;;;;;;;;;;;;6.61;100.00;96787.84;5018009;28;20071;-76
2022/09/23 01:49:34;;;;;;;0.10;0.10;;;;;;;6.65;100.00;96782.91;5018672;28;19916;-76
2022/09/23 01:52:10;;;;;;;0.10;0.10;;;;;;;6.67;100.00;96786.16;5015185;28;20384;-76
2022/09/23 01:54:50;;;;;;;0.10;0.10;;;;;;;6.71;100.00;96784.72;5017502;28;20078;-77
2022/09/23 01:57:34;;;;;;;0.17;0.10;;;;;;;6.75;100.00;96777.09;5018264;28;20131;-77
2022/09/23 02:00:14;;;;;;;0.10;0.10;;;;;;;6.73;100.00;96779.19;5018931;28;20037;-76
2022/09/23 02:02:48;;;;;;;0.10;0.10;;;;;;;6.72;100.00;96770.38;5012246;28;20037;-76
2022/09/23 02:05:29;;;;;;;0.10;0.10;;;;;;;6.74;100.00;96780.81;5001072;28;20046;-76
2022/09/23 02:07:59;;;;;;;0.10;0.10;;;;;;;6.78;100.00;96772.19;5016012;28;20500;-76
2022/09/23 02:10:35;;;;;;;0.30;0.10;;;;;;;6.80;100.00;96771.97;5018921;28;20111;-77
2022/09/23 02:13:07;;;;;;;0.10;0.10;;;;;;;6.84;100.00;96768.63;5018684;28;20395;-77
2022/09/23 02:15:43;;;;;;;0.10;0.10;;;;;;;6.89;100.00;96763.50;5020875;28;20048;-77
2022/09/23 02:18:15;;;;;;;0.10;0.10;;;;;;;6.95;100.00;96759.16;5024074;28;20103;-77
2022/09/23 02:20:42;;;;;;;0.10;0.10;;;;;;;6.93;100.00;96764.69;5022780;28;20279;-76
2022/09/23 02:23:11;;;;;;;0.10;0.10;;;;;;;6.91;100.00;96758.75;5022145;28;20476;-76
2022/09/23 02:25:55;;;;;;;0.00;0.00;;;;;;;6.87;100.00;96762.91;5022235;28;20112;-76
2022/09/23 02:28:33;;;;;;;0.10;0.10;;;;;;;6.83;100.00;96764.34;5024468;28;20128;-76
2022/09/23 02:31:16;;;;;;;0.10;0.10;;;;;;;6.80;100.00;96761.31;5019043;28;20045;-76
2022/09/23 02:34:24;;;;;;;0.03;0.03;;;;;;;6.80;100.00;96764.78;5025472;28;20064;-76
2022/09/23 02:36:55;;;;;;;0.10;0.10;;;;;;;6.82;100.00;96762.72;5011723;28;20574;-76
2022/09/23 02:39:25;;;;;;;0.10;0.10;;;;;;;6.84;100.00;96767.81;5020630;28;20040;-76
2022/09/23 02:42:06;;;;;;;0.00;0.00;;;;;;;6.81;100.00;96769.06;5019116;28;20036;-76
2022/09/23 02:44:32;;;;;;;0.10;0.10;;;;;;;6.78;100.00;96763.38;5024371;28;20140;-76
2022/09/23 02:46:58;;;;;;;0.10;0.10;;;;;;;6.73;100.00;96769.34;5022221;28;20556;-76
2022/09/23 02:49:30;;;;;;;0.00;0.00;;;;;;;6.71;100.00;96763.44;5022372;28;20045;-76
2022/09/23 02:52:03;;;;;;;0.10;0.10;;;;;;;6.75;100.00;96759.31;5014370;28;20043;-76
2022/09/23 02:54:32;;;;;;;0.10;0.10;;;;;;;6.79;100.00;96763.16;5021675;28;20095;-76
2022/09/23 02:57:00;;;;;;;0.10;0.10;;;;;;;6.81;100.00;96768.25;5002674;28;20029;-76
2022/09/23 02:59:25;;;;;;;0.00;0.00;;;;;;;6.85;100.00;96764.97;5022872;28;20536;-76
2022/09/23 03:02:12;;;;;;;0.38;0.10;;;;;;;6.89;100.00;96758.16;5003510;28;20087;-76
2022/09/23 03:04:49;;;;;;;0.00;0.00;;;;;;;6.92;100.00;96762.22;5025124;28;20140;-76
2022/09/23 03:07:18;;;;;;;0.10;0.10;;;;;;;6.92;100.00;96755.06;5020723;28;20032;-76
2022/09/23 03:10:02;;;;;;;0.10;0.10;;;;;;;6.95;100.00;96754.63;5004727;28;20030;-76
2022/09/23 03:12:37;;;;;;;0.15;0.10;;;;;;;7.04;100.00;96747.19;5021749;28;20055;-76
2022/09/23 03:15:12;;;;;;;0.10;0.10;;;;;;;7.17;100.00;96748.94;5023249;28;20287;-76
2022/09/23 03:17:48;;;;;;;0.10;0.10;;;;;;;7.23;100.00;96737.38;5022356;28;20128;-76
2022/09/23 03:20:44;;;;;;;0.10;0.10;;;;;;;7.30;100.00;96737.31;5018510;28;20036;-78
2022/09/23 03:23:13;;;;;;;0.10;0.10;;;;;;;7.37;100.00;96738.88;5023375;28;20376;-78
2022/09/23 03:25:43;;;;;;;0.10;0.10;;;;;;;7.38;100.00;96737.84;5021219;28;20630;-78
2022/09/23 03:28:09;;;;;;;0.10;0.10;;;;;;;7.37;100.00;96730.88;5021744;28;20468;-78
2022/09/23 03:30:36;;;;;;;0.00;0.00;;;;;;;7.34;100.00;96726.00;5023239;28;20033;-75
2022/09/23 03:33:10;;;;;;;0.00;0.00;;;;;;;7.37;100.00;96732.72;5022496;28;20167;-75
2022/09/23 03:38:36;;;;;;;0.00;0.00;;;;;;;7.32;100.00;96717.44;5020733;28;20025;-75
2022/09/23 03:41:03;;;;;;;0.10;0.10;;;;;;;7.33;100.00;96719.06;5021748;28;20725;-75
2022/09/23 03:43:30;;;;;;;0.10;0.10;;;;;;;7.35;100.00;96711.66;5022227;28;20026;-75
2022/09/23 03:45:56;;;;;;;0.00;0.00;;;;;;;7.38;100.00;96713.06;5023744;28;20352;-75
2022/09/23 03:48:23;;;;;;;0.22;0.10;;;;;;;7.41;100.00;96700.13;5020138;28;20040;-76
2022/09/23 03:50:49;;;;;;;0.10;0.10;;;;;;;7.41;100.00;96704.66;5017616;28;20025;-76
2022/09/23 03:53:16;;;;;;;0.10;0.10;;;;;;;7.41;100.00;96707.31;5021338;28;20040;-76
2022/09/23 03:55:42;;;;;;;0.10;0.10;;;;;;;7.35;100.00;96709.00;5022497;28;20038;-76
2022/09/23 03:58:07;;;;;;;0.10;0.10;;;;;;;7.38;100.00;96708.53;5021362;28;20152;-76
2022/09/23 04:00:34;;;;;;;0.10;0.10;;;;;;;7.31;100.00;96699.00;5021451;28;20040;-77
2022/09/23 04:03:00;;;;;;;0.10;0.10;;;;;;;7.24;100.00;96701.75;5022410;28;20038;-76
2022/09/23 04:05:26;;;;;;;0.10;0.10;;;;;;;7.23;100.00;96705.44;5023026;28;22341;-76
2022/09/23 04:07:51;;;;;;;0.10;0.10;;;;;;;7.16;100.00;96699.38;5024053;28;20337;-76
2022/09/23 04:10:17;;;;;;;0.00;0.00;;;;;;;7.10;100.00;96697.59;5018876;28;20113;-76
2022/09/23 04:12:43;;;;;;;0.10;0.10;;;;;;;7.12;100.00;96692.88;4995920;28;20559;-77
2022/09/23 04:15:09;;;;;;;0.10;0.10;;;;;;;7.13;100.00;96691.84;5001642;28;20034;-77
2022/09/23 04:17:35;;;;;;;0.10;0.10;;;;;;;7.12;100.00;96682.22;5001421;28;20030;-76
2022/09/23 04:20:01;;;;;;;0.00;0.00;;;;;;;7.12;100.00;96690.22;5003821;28;20088;-76
2022/09/23 04:22:28;;;;;;;0.10;0.10;;;;;;;7.11;100.00;96688.59;4998449;28;20037;-76
2022/09/23 04:24:55;;;;;;;0.00;0.00;;;;;;;7.11;100.00;96691.25;5000820;28;20021;-76
2022/09/23 04:27:20;;;;;;;0.10;0.10;;;;;;;7.07;100.00;96700.69;4999962;28;20038;-77
2022/09/23 04:29:46;;;;;;;0.00;0.00;;;;;;;7.04;100.00;96695.81;4997978;28;20477;-77
2022/09/23 04:32:11;;;;;;;0.00;0.00;;;;;;;7.03;100.00;96696.84;4993433;28;20208;-77
2022/09/23 04:34:37;;;;;;;0.10;0.10;;;;;;;6.97;100.00;96691.38;4995077;28;20068;-76
2022/09/23 04:37:02;;;;;;;0.10;0.10;;;;;;;6.93;100.00;96690.19;4997123;28;20303;-77
2022/09/23 04:39:28;;;;;;;0.10;0.10;;;;;;;6.90;100.00;96692.47;4996103;28;20523;-77
2022/09/23 04:41:53;;;;;;;0.10;0.10;;;;;;;6.90;100.00;96687.97;4995996;28;20030;-76
2022/09/23 04:44:20;;;;;;;0.10;0.10;;;;;;;6.86;100.00;96684.13;4999011;28;20041;-76
2022/09/23 04:46:46;;;;;;;0.10;0.10;;;;;;;6.86;100.00;96683.31;5002659;28;20116;-77
2022/09/23 04:49:13;;;;;;;0.10;0.10;;;;;;;6.84;100.00;96688.03;4999401;28;20121;-77
2022/09/23 04:51:42;;;;;;;0.10;0.10;;;;;;;6.83;100.00;96676.56;4996844;28;20628;-76
2022/09/23 04:54:11;;;;;;;0.10;0.10;;;;;;;6.85;100.00;96687.00;5004376;28;20079;-76
2022/09/23 04:56:38;;;;;;;0.00;0.00;;;;;;;6.81;100.00;96675.97;5002522;28;20121;-76
2022/09/23 04:59:04;;;;;;;0.03;0.03;;;;;;;6.83;100.00;96684.53;5002383;28;20045;-76
2022/09/23 05:01:33;;;;;;;0.10;0.10;;;;;;;6.80;100.00;96682.34;4974764;28;20176;-77
2022/09/23 05:04:01;;;;;;;0.10;0.10;;;;;;;6.79;100.00;96680.72;5001097;28;20785;-76
2022/09/23 05:06:28;;;;;;;0.03;0.03;;;;;;;6.78;100.00;96687.06;4977423;28;20349;-76
2022/09/23 05:08:55;;;;;;;0.10;0.10;;;;;;;6.76;100.00;96697.09;5003352;28;20044;-76
2022/09/23 05:11:21;;;;;;;0.10;0.10;;;;;;;6.73;100.00;96689.56;5012198;28;20175;-77
2022/09/23 05:13:49;;;;;;;0.10;0.10;;;;;;;6.70;100.00;96697.97;5004921;28;20491;-76
2022/09/23 05:16:15;;;;;;;0.13;0.10;;;;;;;6.67;100.00;96693.91;5013443;28;20028;-76
2022/09/23 05:18:43;;;;;;;0.00;0.00;;;;;;;6.62;100.00;96683.13;5023591;28;20469;-76
2022/09/23 05:21:13;;;;;;;0.10;0.10;;;;;;;6.65;100.00;96690.66;5018944;28;20229;-77
2022/09/23 05:23:39;;;;;;;0.10;0.10;;;;;;;6.68;100.00;96694.72;5022156;28;20040;-77
2022/09/23 05:26:12;;;;;;;0.10;0.10;;;;;;;6.70;100.00;96690.00;5020273;28;20044;-77
2022/09/23 05:28:38;;;;;;;0.10;0.10;;;;;;;6.69;100.00;96691.84;5015152;28;20079;-77
2022/09/23 05:31:05;;;;;;;0.10;0.10;;;;;;;6.67;100.00;96693.91;5021086;28;20037;-77
2022/09/23 05:33:32;;;;;;;0.10;0.10;;;;;;;6.64;100.00;96685.56;5021136;28;20041;-77
2022/09/23 05:35:57;;;;;;;0.10;0.10;;;;;;;6.66;100.00;96686.16;5018580;28;20128;-78
2022/09/23 05:38:23;;;;;;;0.10;0.10;;;;;;;6.68;100.00;96676.09;5019848;28;20657;-77
2022/09/23 05:41:00;;;;;;;0.10;0.10;;;;;;;6.70;100.00;96677.53;5001944;28;20488;-77
2022/09/23 05:43:26;;;;;;;0.10;0.10;;;;;;;6.80;100.00;96682.34;4999870;28;20041;-77
2022/09/23 05:46:08;;;;;;;0.08;0.08;;;;;;;6.90;100.00;96679.16;5021375;28;20529;-77
2022/09/23 05:48:35;;;;;;;0.10;0.10;;;;;;;6.95;100.00;96676.69;5020486;28;20336;-76
2022/09/23 05:51:00;;;;;;;0.10;0.10;;;;;;;6.94;100.00;96683.03;5017533;28;20068;-76
2022/09/23 05:53:28;;;;;;;0.10;0.10;;;;;;;6.93;100.00;96679.56;5021142;28;21296;-76
2022/09/23 05:55:55;;;;;;;0.10;0.10;;;;;;;6.93;100.00;96682.22;5020786;28;20072;-76
2022/09/23 05:58:22;;;;;;;0.10;0.10;;;;;;;6.86;100.00;96678.81;5002434;28;20113;-76
2022/09/23 06:00:48;;;;;;;0.10;0.10;;;;;;;6.86;100.00;96676.16;5020666;28;20041;-76
2022/09/23 06:03:15;;;;;;;0.10;0.10;;;;;;;6.80;100.00;96682.34;5022411;28;20056;-76
2022/09/23 06:05:41;;;;;;;0.10;0.10;;;;;;;6.76;100.00;96682.97;4999171;28;20440;-76
2022/09/23 06:08:08;;;;;;;0.10;0.10;;;;;;;6.73;100.00;96684.25;5021776;28;20136;-76
2022/09/23 06:10:42;;;;;;;0.10;0.10;;;;;;;6.72;100.00;96684.47;5023562;28;20100;-76
2022/09/23 06:13:08;;;;;;;0.10;0.10;;;;;;;6.69;100.00;96681.22;5020382;28;20379;-76
2022/09/23 06:15:35;;;;;;;0.10;0.10;;;;;;;6.70;100.00;96679.38;5023070;28;20290;-76
2022/09/23 06:18:00;;;;;;;0.10;0.10;;;;;;;6.69;100.00;96678.56;5020492;28;20033;-76
2022/09/23 06:20:26;;;;;;;0.10;0.10;;;;;;;6.71;100.00;96681.00;5016799;28;20045;-76
2022/09/23 06:22:53;;;;;;;0.20;0.10;;;;;;;6.73;100.00;96681.59;5022928;28;20092;-75
2022/09/23 06:25:21;;;;;;;0.10;0.10;;;;;;;6.76;100.00;96680.31;5022072;28;20120;-76
2022/09/23 06:27:54;;;;;;;0.10;0.10;;;;;;;6.80;100.00;96679.69;5015989;28;20305;-76
2022/09/23 06:30:25;;;;;;;0.03;0.03;;;;;;;6.86;100.00;96667.34;5020022;28;20068;-76
2022/09/23 06:32:53;;;;;;;0.10;0.10;;;;;;;6.90;100.00;96676.50;4984819;28;20065;-76
2022/09/23 06:35:20;;;;;;;0.13;0.10;;;;;;;6.95;100.00;96669.50;5020647;28;20038;-76
2022/09/23 06:37:46;;;;;;;0.10;0.10;;;;;;;6.98;100.00;96668.25;5021597;28;20119;-76
2022/09/23 06:40:15;;;;;;;0.10;0.10;;;;;;;7.06;100.00;96661.81;5018351;28;20029;-76
2022/09/23 06:42:41;;;;;;;0.38;0.13;;;;;;;7.08;100.00;96665.91;5021733;28;20505;-76
2022/09/23 06:45:11;;;;;;;0.10;0.10;;;;;;;7.15;100.00;96663.94;5021430;28;20037;-76
2022/09/23 06:47:38;;;;;;;0.10;0.10;;;;;;;7.21;100.00;96659.59;5021579;28;20033;-76
2022/09/23 06:50:05;;;;;;;0.10;0.10;;;;;;;7.24;100.00;96656.50;5020141;28;20465;-76
2022/09/23 06:52:30;;;;;;;0.10;0.10;;;;;;;7.27;100.00;96658.72;5020419;28;20037;-76
2022/09/23 06:54:56;;;;;;;0.10;0.10;;;;;;;7.33;100.00;96665.81;5004056;28;20169;-76
2022/09/23 06:57:23;;;;;;;0.10;0.10;;;;;;;7.44;100.00;96673.06;5022408;28;20465;-76
2022/09/23 06:59:49;;;;;;;0.10;0.10;;;;;;;7.54;100.00;96670.66;5021331;28;20159;-76
2022/09/23 07:02:14;;;;;;;0.10;0.10;;;;;;;7.66;100.00;96667.25;5018655;28;20759;-76
2022/09/23 07:04:40;;;;;;;0.10;0.10;;;;;;;7.75;100.00;96665.91;5025338;28;20031;-76
2022/09/23 07:07:05;;;;;;;0.10;0.10;;;;;;;7.86;100.00;96659.84;5022894;28;20053;-76
2022/09/23 07:09:31;;;;;;;0.10;0.10;;;;;;;7.95;100.00;96669.13;5025802;28;20040;-76
2022/09/23 07:11:56;;;;;;;0.10;0.10;;;;;;;8.02;100.00;96672.50;5005504;28;20061;-76
2022/09/23 07:14:22;;;;;;;0.10;0.10;;;;;;;8.09;100.00;96670.56;5003606;28;20196;-76
2022/09/23 07:16:49;;;;;;;0.10;0.10;;;;;;;8.18;100.00;96665.72;5002587;28;20038;-76
2022/09/23 07:19:15;;;;;;;0.10;0.10;;;;;;;8.26;100.00;96659.25;5004090;28;20026;-76
2022/09/23 07:21:40;;;;;;;0.10;0.10;;;;;;;8.35;100.00;96669.38;5001235;28;20026;-76
2022/09/23 07:24:06;;;;;;;0.10;0.10;;;;;;;8.44;100.00;96667.19;5004893;28;20770;-76
2022/09/23 07:26:32;;;;;;;0.10;0.10;;;;;;;8.59;100.00;96677.41;4982975;28;20037;-76
2022/09/23 07:29:03;;;;;;;0.10;0.10;;;;;;;8.68;100.00;96672.56;5004332;28;20515;-76
2022/09/23 07:31:34;;;;;;;0.10;0.10;;;;;;;8.81;100.00;96670.47;4983313;28;20095;-76
2022/09/23 07:34:00;;;;;;;0.00;0.00;;;;;;;8.96;100.00;96680.69;5005602;28;20034;-76
2022/09/23 07:36:27;;;;;;;0.10;0.10;;;;;;;9.05;100.00;96684.63;5001438;28;20343;-76
2022/09/23 07:38:59;;;;;;;0.00;0.00;;;;;;;9.19;100.00;96679.88;5004275;28;20069;-76
2022/09/23 07:41:27;;;;;;;0.10;0.10;;;;;;;9.35;100.00;96678.34;5002819;28;20374;-76
2022/09/23 07:43:58;;;;;;;0.10;0.10;;;;;;;9.47;100.00;96674.56;4986299;28;20029;-76
2022/09/23 07:46:33;;;;;;;0.10;0.10;;;;;;;9.59;100.00;96685.25;5001323;28;20116;-76
2022/09/23 07:48:59;;;;;;;0.00;0.00;;;;;;;9.71;100.00;96678.00;4981540;28;20711;-76
2022/09/23 07:51:34;;;;;;;0.10;0.10;;;;;;;9.83;100.00;96674.47;4983956;28;20143;-76
2022/09/23 07:53:59;;;;;;;0.10;0.10;;;;;;;9.92;100.00;96673.06;4982999;28;20125;-76
2022/09/23 07:56:27;;;;;;;0.10;0.10;;;;;;;10.03;100.00;96672.16;5004784;28;20068;-76
2022/09/23 07:59:00;;;;;;;0.10;0.10;;;;;;;10.16;100.00;96668.41;5003503;28;20034;-77
2022/09/23 08:01:31;;;;;;;0.10;0.10;;;;;;;10.25;100.00;96667.78;5001469;28;20037;-76
2022/09/23 08:03:58;;;;;;;;;;;;;;;10.26;100.00;96668.59;5004671;28;20061;-76
2022/09/23 08:06:24;;;;;;;0.05;0.05;;;;;;;10.39;100.00;96672.84;5002444;28;20027;-76
2022/09/23 08:08:50;;;;;;;0.32;0.10;;;;;;;10.46;100.00;96673.50;4997758;28;20489;-76
2022/09/23 08:11:16;;;;;;;0.25;0.10;;;;;;;10.53;100.00;96668.81;5003098;28;20450;-76
2022/09/23 08:13:42;;;;;;;0.10;0.10;;;;;;;10.63;100.00;96673.50;5004116;28;20575;-76
2022/09/23 08:16:08;;;;;;;0.10;0.10;;;;;;;10.68;100.00;96679.75;5001125;28;20049;-76
2022/09/23 08:18:34;;;;;;;0.00;0.00;;;;;;;10.70;100.00;96682.19;4950480;28;20102;-76
2022/09/23 08:21:00;;;;;;;0.10;0.10;;;;;;;10.65;100.00;96680.22;4997766;28;21014;-77
2022/09/23 08:23:26;;;;;;;0.10;0.10;;;;;;;10.77;100.00;96680.16;5003378;28;20026;-76
2022/09/23 08:25:59;;;;;;;0.10;0.10;;;;;;;10.76;100.00;96678.53;5004536;28;20059;-77
2022/09/23 08:28:25;;;;;;;0.10;0.10;;;;;;;10.89;100.00;96675.50;5004232;28;20034;-76
2022/09/23 08:30:50;;;;;;;0.10;0.10;;;;;;;10.83;100.00;96677.31;5000387;28;21003;-77
2022/09/23 08:33:16;;;;;;;0.10;0.10;;;;;;;10.83;100.00;96676.50;5002356;28;20045;-76
2022/09/23 08:35:41;;;;;;;0.10;0.10;;;;;;;10.89;100.00;96672.84;5003183;28;20121;-77
2022/09/23 08:38:07;;;;;;;0.17;0.17;;;;;;;10.88;100.00;96676.56;5002738;28;20038;-77
2022/09/23 08:40:36;;;;;;;0.10;0.10;;;;;;;11.01;100.00;96675.44;5003585;28;20096;-77
2022/09/23 08:43:06;;;;;;;0.10;0.10;;;;;;;11.13;100.00;96668.13;4980743;28;20069;-76
2022/09/23 08:45:34;;;;;;;0.10;0.10;;;;;;;11.22;100.00;96669.31;4963194;28;20026;-76
2022/09/23 08:48:08;;;;;;;0.10;0.10;;;;;;;11.29;100.00;96671.81;4996417;28;20037;-76
2022/09/23 08:50:41;;;;;;;0.10;0.10;;;;;;;11.45;100.00;96670.97;4999124;28;20091;-76
2022/09/23 08:53:25;;;;;;;0.10;0.10;;;;;;;11.43;100.00;96673.06;5003598;28;20083;-76
2022/09/23 08:55:53;;;;;;;0.10;0.10;;;;;;;11.57;100.00;96673.50;4984749;28;20152;-76
2022/09/23 08:58:47;;;;;;;0.10;0.10;;;;;;;11.60;100.00;96678.38;5001313;28;20473;-76
2022/09/23 09:01:22;;;;;;;0.10;0.10;;;;;;;11.71;100.00;96677.44;4994282;28;20200;-76
2022/09/23 09:03:52;;;;;;;0.10;0.10;;;;;;;11.80;100.00;96669.75;4984397;28;20037;-76
2022/09/23 09:06:51;;;;;;;0.10;0.10;;;;;;;11.99;100.00;96671.91;4997577;28;20050;-76
2022/09/23 09:09:27;;;;;;;0.10;0.10;;;;;;;12.12;100.00;96673.34;4977716;28;20473;-76
2022/09/23 09:12:02;;;;;;;0.10;0.10;;;;;;;12.28;100.00;96674.31;5015915;28;20072;-76
2022/09/23 09:14:56;;;;;;;0.10;0.10;;;;;;;12.50;100.00;96671.56;5021534;28;20484;-77
2022/09/23 09:17:47;;;;;;;0.10;0.10;;;;;;;12.43;100.00;96674.47;5018562;28;20271;-77
2022/09/23 09:20:34;;;;;;;0.10;0.10;;;;;;;12.81;100.00;96668.06;5020040;28;20045;-77
2022/09/23 09:23:01;;;;;;;0.10;0.10;;;;;;;13.29;100.00;96668.13;5021065;28;20106;-77
2022/09/23 09:25:48;;;;;;;0.10;0.10;;;;;;;13.41;100.00;96665.25;5017513;28;20025;-77
2022/09/23 09:28:29;;;;;;;0.10;0.10;;;;;;;13.60;100.00;96664.53;5004391;28;20061;-77
2022/09/23 09:30:59;;;;;;;0.10;0.10;;;;;;;14.01;100.00;96653.94;5000538;28;20144;-77
2022/09/23 09:33:39;;;;;;;0.10;0.10;;;;;;;14.14;99.99;96666.06;5003070;28;20034;-77
2022/09/23 09:36:19;;;;;;;0.10;0.10;;;;;;;14.14;100.00;96656.09;5013297;28;20033;-78
2022/09/23 09:38:45;;;;;;;0.10;0.10;;;;;;;14.25;97.76;96662.31;5021388;28;20037;-77
2022/09/23 09:41:15;;;;;;;0.13;0.10;;;;;;;14.27;99.90;96643.22;5016129;28;20386;-78
2022/09/23 09:43:47;;;;;;;0.17;0.13;;;;;;;14.31;99.40;96653.16;5021364;28;20045;-77
2022/09/23 09:46:37;;;;;;;0.10;0.10;;;;;;;14.22;99.06;96647.50;5020493;28;20476;-77
2022/09/23 09:49:22;;;;;;;0.20;0.15;;;;;;;14.68;98.17;96647.56;5020455;28;20041;-77
2022/09/23 09:52:08;;;;;;;0.10;0.10;;;;;;;15.15;94.44;96651.81;5015742;28;20123;-77
2022/09/23 09:54:34;;;;;;;0.10;0.10;;;;;;;15.00;95.44;96643.78;5016184;28;20037;-78
2022/09/23 09:57:04;;;;;;;0.10;0.10;;;;;;;15.29;96.08;96641.28;4995307;28;20408;-77
2022/09/23 09:59:29;;;;;;;0.10;0.10;;;;;;;15.50;94.90;96637.47;5016657;28;20041;-77
2022/09/23 10:02:39;;;;;;;0.10;0.10;;;;;;;15.73;91.27;96633.34;4996614;28;20376;-77
2022/09/23 10:05:06;;;;;;;0.10;0.10;;;;;;;16.49;90.23;96631.25;4990234;28;20037;-78
2022/09/23 10:07:33;;;;;;;0.10;0.10;;;;;;;16.20;90.06;96628.50;5018267;28;20030;-78
2022/09/23 10:10:23;;;;;;;0.10;0.10;;;;;;;16.29;89.39;96621.44;5000258;28;20055;-77
2022/09/23 10:12:49;;;;;;;0.10;0.10;;;;;;;16.45;88.70;96617.53;5021491;28;20685;-77
2022/09/23 10:15:27;;;;;;;0.10;0.10;;;;;;;16.91;89.01;96612.56;5004946;28;20040;-77
2022/09/23 10:17:53;;;;;;;0.10;0.10;;;;;;;17.52;83.43;96606.50;5020626;28;20039;-77
2022/09/23 10:20:19;;;;;;;0.10;0.10;;;;;;;17.80;80.68;96609.44;5020213;28;20033;-78
2022/09/23 10:22:46;;;;;;;0.10;0.10;;;;;;;18.24;79.15;96605.56;5021416;28;20082;-77
2022/09/23 10:25:20;;;;;;;0.10;0.10;;;;;;;18.80;67.90;96608.22;5022013;28;20029;-78
2022/09/23 10:27:45;;;;;;;0.10;0.10;;;;;;;19.25;72.73;96600.38;4988524;28;20126;-78
2022/09/23 10:30:14;;;;;;;0.10;0.10;;;;;;;18.87;65.65;96602.41;5021972;28;20503;-77
2022/09/23 10:32:43;;;;;;;0.00;0.00;;;;;;;19.09;67.66;96605.28;5022001;28;20033;-78
2022/09/23 10:35:10;;;;;;;0.10;0.10;;;;;;;20.06;62.19;96619.63;4671886;28;9999853;-78
2022/09/23 10:37:43;;;;;;;0.10;0.10;;;;;;;19.04;60.97;96608.06;4641134;28;10000300;-78
2022/09/23 10:46:39;;;;;;;0.10;0.10;;;;;;;18.59;62.89;96607.72;5026002;28;20041;-77
2022/09/23 10:49:23;;;;;;;0.13;0.10;;;;;;;18.97;63.39;96602.22;5029137;28;20496;-77
2022/09/23 10:52:06;;;;;;;0.10;0.10;;;;;;;19.54;61.13;96591.16;5022731;28;20661;-77
2022/09/23 10:54:59;;;;;;;0.10;0.10;;;;;;;20.82;53.11;96587.19;5026182;28;20072;-78
2022/09/23 10:58:03;;;;;;;0.10;0.10;;;;;;;20.92;49.60;96588.81;5026657;28;20504;-78
2022/09/23 11:00:36;;;;;;;0.10;0.10;;;;;;;22.81;45.43;96582.22;5008573;28;20348;-78
2022/09/23 11:03:27;;;;;;;0.10;0.10;;;;;;;22.86;43.58;96595.69;5026604;28;20028;-78
2022/09/23 11:06:14;;;;;;;0.10;0.10;;;;;;;24.40;41.42;96576.16;5024225;28;20044;-78
2022/09/23 11:09:19;;;;;;;0.10;0.10;;;;;;;24.09;39.44;96578.47;5025519;28;20041;-78
2022/09/23 11:11:53;;;;;;;0.45;0.20;;;;;;;23.83;41.54;96576.72;5006452;28;20567;-78
2022/09/23 11:15:00;;;;;;;0.30;0.10;;;;;;;24.69;40.32;96578.00;5025675;28;20041;-78
2022/09/23 11:18:02;;;;;;;0.10;0.10;;;;;;;24.94;36.19;96567.13;4996453;28;20052;-78
2022/09/23 11:20:32;;;;;;;0.10;0.10;;;;;;;24.04;37.39;96568.53;5008433;28;20065;-78
2022/09/23 11:23:22;;;;;;;0.10;0.10;;;;;;;23.98;38.58;96577.28;5023114;28;20052;-78
2022/09/23 11:26:12;;;;;;;0.17;0.17;;;;;;;23.94;40.02;96573.59;4970377;28;20429;-77
2022/09/23 11:28:59;;;;;;;0.10;0.10;;;;;;;24.49;36.86;96559.69;4967994;28;20040;-78
2022/09/23 11:31:44;;;;;;;0.10;0.10;;;;;;;24.38;38.13;96566.72;5020760;28;20047;-77
2022/09/23 11:34:39;;;;;;;0.10;0.10;;;;;;;24.66;38.22;96559.50;5027400;28;20051;-78
2022/09/23 11:37:13;;;;;;;0.10;0.10;;;;;;;24.19;37.54;96564.41;4983188;28;20153;-78
2022/09/23 11:39:52;;;;;;;0.10;0.10;;;;;;;25.71;35.17;96556.41;4960915;28;20203;-79
2022/09/23 11:42:39;;;;;;;0.20;0.20;;;;;;;26.09;34.20;96548.59;4966315;28;20064;-76
2022/09/23 11:45:22;;;;;;;0.10;0.10;;;;;;;26.15;33.63;96549.16;5023538;28;20480;-77
2022/09/23 11:48:00;;;;;;;0.10;0.10;;;;;;;27.40;30.90;96539.66;5025227;28;20032;-77
2022/09/23 11:50:35;;;;;;;0.10;0.10;;;;;;;28.88;30.24;96542.50;5023455;28;20033;-78
2022/09/23 11:53:11;;;;;;;0.10;0.10;;;;;;;28.20;29.99;96540.31;5029449;28;20037;-77
2022/09/23 11:55:47;;;;;;;0.10;0.10;;;;;;;30.30;29.80;96527.47;5028034;28;20029;-78
2022/09/23 11:58:20;;;;;;;0.10;0.10;;;;;;;30.53;27.22;96527.38;5005997;28;20033;-78
2022/09/23 12:01:12;;;;;;;0.10;0.10;;;;;;;29.88;26.50;96538.69;5026357;28;20052;-77
2022/09/23 12:04:03;;;;;;;0.10;0.10;;;;;;;30.01;26.08;96533.75;5012437;28;20041;-77
2022/09/23 12:06:35;;;;;;;0.10;0.10;;;;;;;30.81;27.37;96531.63;5023965;28;20052;-77